createdAt,value
2023-05-06T00:01:45.210Z,97811.97
2023-05-06T00:04:12.686Z,97807.63
2023-05-06T00:06:41.660Z,97800.78
2023-05-06T00:09:09.613Z,97798.44
2023-05-06T00:11:37.215Z,97800.09
2023-05-06T00:14:04.741Z,97811.88
2023-05-06T00:16:33.661Z,97802.44
2023-05-06T00:19:01.357Z,97805.31
2023-05-06T00:21:28.838Z,97812.25
2023-05-06T00:23:56.410Z,97807.66
2023-05-06T00:26:23.945Z,97809.28
2023-05-06T00:28:51.431Z,97810.75
2023-05-06T00:31:18.969Z,97801.31
2023-05-06T00:33:47.776Z,97797.81
2023-05-06T00:36:15.326Z,97796.59
2023-05-06T00:38:42.778Z,97799.44
2023-05-06T00:41:10.254Z,97803.69
2023-05-06T00:43:37.749Z,97795.00
2023-05-06T00:46:12.122Z,97805.13
2023-05-06T00:48:40.588Z,97785.41
2023-05-06T00:51:09.441Z,97792.28
2023-05-06T00:53:37.068Z,97799.16
2023-05-06T00:56:04.935Z,97802.53
2023-05-06T00:58:32.516Z,97798.97
2023-05-06T01:01:01.742Z,97800.75
2023-05-06T01:03:29.436Z,97800.28
2023-05-06T01:06:08.225Z,97792.69
2023-05-06T01:08:45.354Z,97794.97
2023-05-06T01:11:15.917Z,97803.75
2023-05-06T01:13:48.066Z,97808.72
2023-05-06T01:16:18.858Z,97813.81
2023-05-06T01:18:49.716Z,97802.81
2023-05-06T01:21:19.167Z,97790.72
2023-05-06T01:23:57.617Z,97793.41
2023-05-06T01:26:25.757Z,97809.88
2023-05-06T01:28:53.865Z,97797.31
2023-05-06T01:31:27.017Z,97789.19
2023-05-06T01:34:06.915Z,97798.41
2023-05-06T01:36:39.963Z,97793.38
2023-05-06T01:39:17.471Z,97782.50
2023-05-06T01:41:48.043Z,97785.59
2023-05-06T01:44:16.520Z,97783.38
2023-05-06T01:46:46.130Z,97780.94
2023-05-06T01:49:15.781Z,97786.19
2023-05-06T01:51:48.819Z,97789.44
2023-05-06T01:54:17.897Z,97784.25
2023-05-06T01:56:45.430Z,97785.50
2023-05-06T01:59:13.101Z,97782.31
2023-05-06T02:01:40.714Z,97786.50
2023-05-06T02:04:08.333Z,97792.16
2023-05-06T02:06:35.844Z,97790.47
2023-05-06T02:09:03.347Z,97785.84
2023-05-06T02:11:32.179Z,97776.66
2023-05-06T02:13:59.668Z,97777.47
2023-05-06T02:16:28.710Z,97775.16
2023-05-06T02:18:56.444Z,97788.66
2023-05-06T02:21:24.014Z,97780.66
2023-05-06T02:23:51.483Z,97786.38
2023-05-06T02:26:18.955Z,97789.22
2023-05-06T02:28:47.756Z,97801.38
2023-05-06T02:31:16.144Z,97780.97
2023-05-06T02:33:44.731Z,97785.66
2023-05-06T02:36:12.290Z,97784.88
2023-05-06T02:38:39.841Z,97786.75
2023-05-06T02:41:07.342Z,97775.44
2023-05-06T02:43:34.806Z,97775.16
2023-05-06T02:46:03.669Z,97782.03
2023-05-06T02:48:31.254Z,97771.16
2023-05-06T02:50:58.704Z,97780.41
2023-05-06T02:53:26.226Z,97779.34
2023-05-06T02:55:53.827Z,97779.81
2023-05-06T02:58:21.285Z,97771.25
2023-05-06T03:00:48.760Z,97781.78
2023-05-06T03:03:18.071Z,97781.44
2023-05-06T03:05:45.723Z,97764.19
2023-05-06T03:08:13.178Z,97780.78
2023-05-06T03:10:40.632Z,97772.56
2023-05-06T03:13:08.196Z,97787.88
2023-05-06T03:15:35.796Z,97777.59
2023-05-06T03:18:03.297Z,97773.75
2023-05-06T03:20:32.113Z,97774.88
2023-05-06T03:22:59.737Z,97776.91
2023-05-06T03:25:27.215Z,97787.44
2023-05-06T03:27:54.975Z,97781.47
2023-05-06T03:30:22.415Z,97788.72
2023-05-06T03:32:49.942Z,97773.22
2023-05-06T03:35:17.874Z,97776.22
2023-05-06T03:37:46.710Z,97770.81
2023-05-06T03:40:14.331Z,97772.56
2023-05-06T03:42:41.808Z,97778.94
2023-05-06T03:45:10.043Z,97770.81
2023-05-06T03:47:38.172Z,97773.09
2023-05-06T03:50:06.517Z,97771.88
2023-05-06T03:52:34.034Z,97780.66
2023-05-06T03:55:03.162Z,97778.97
2023-05-06T03:57:30.672Z,97794.88
2023-05-06T03:59:58.155Z,97777.28
2023-05-06T04:02:25.860Z,97776.22
2023-05-06T04:04:53.498Z,97781.78
2023-05-06T04:07:20.946Z,97767.31
2023-05-06T04:09:48.394Z,97771.44
2023-05-06T04:12:17.194Z,97767.63
2023-05-06T04:14:44.693Z,97768.56
2023-05-06T04:17:12.168Z,97762.94
2023-05-06T04:19:39.613Z,97765.16
2023-05-06T04:22:07.341Z,97772.03
2023-05-06T04:24:34.775Z,97771.53
2023-05-06T04:27:04.105Z,97777.28
2023-05-06T04:29:32.961Z,97780.19
2023-05-06T04:32:00.537Z,97785.41
2023-05-06T04:34:28.867Z,97808.66
2023-05-06T04:36:56.435Z,97796.19
2023-05-06T04:39:24.086Z,97795.19
2023-05-06T04:41:51.635Z,97788.34
2023-05-06T04:44:19.387Z,97806.56
2023-05-06T04:46:48.473Z,97814.63
2023-05-06T04:49:15.925Z,97829.81
2023-05-06T04:51:43.368Z,97824.56
2023-05-06T04:54:11.003Z,97828.72
2023-05-06T04:56:38.495Z,97822.09
2023-05-06T04:59:05.958Z,97824.91
2023-05-06T05:01:33.426Z,97829.31
2023-05-06T05:04:02.248Z,97822.81
2023-05-06T05:06:29.721Z,97814.47
2023-05-06T05:08:57.191Z,97817.16
2023-05-06T05:11:24.657Z,97828.16
2023-05-06T05:13:53.379Z,97831.13
2023-05-06T05:16:21.850Z,97827.59
2023-05-06T05:18:49.339Z,97832.34
2023-05-06T05:21:18.122Z,97831.91
2023-05-06T05:23:45.627Z,97822.47
2023-05-06T05:26:13.108Z,97832.94
2023-05-06T05:28:40.636Z,97831.22
2023-05-06T05:31:10.213Z,97834.13
2023-05-06T05:33:38.094Z,97834.94
2023-05-06T05:36:06.061Z,97833.44
2023-05-06T05:38:34.917Z,97844.44
2023-05-06T05:41:02.595Z,97840.31
2023-05-06T05:43:31.384Z,97841.53
2023-05-06T05:45:59.024Z,97841.03
2023-05-06T05:48:26.499Z,97843.03
2023-05-06T05:50:54.141Z,97852.63
2023-05-06T05:53:21.574Z,97853.06
2023-05-06T05:55:52.370Z,97851.91
2023-05-06T05:58:20.276Z,97847.59
2023-05-06T06:00:47.863Z,97842.91
2023-05-06T06:03:15.452Z,97854.50
2023-05-06T06:05:43.157Z,97853.56
2023-05-06T06:08:10.782Z,97857.81
2023-05-06T06:10:38.238Z,97863.13
2023-05-06T06:13:07.102Z,97865.50
2023-05-06T06:15:34.793Z,97854.44
2023-05-06T06:18:02.622Z,97861.06
2023-05-06T06:20:30.113Z,97855.66
2023-05-06T06:22:57.583Z,97859.03
2023-05-06T06:25:25.023Z,97854.78
2023-05-06T06:27:52.475Z,97859.59
2023-05-06T06:30:21.320Z,97849.28
2023-05-06T06:32:50.086Z,97852.06
2023-05-06T06:35:19.006Z,97856.03
2023-05-06T06:37:46.913Z,97868.06
2023-05-06T06:40:15.034Z,97865.94
2023-05-06T06:42:42.484Z,97857.63
2023-05-06T06:45:10.925Z,97865.69
2023-05-06T06:47:40.002Z,97862.41
2023-05-06T06:50:09.106Z,97857.53
2023-05-06T06:52:36.895Z,97860.44
2023-05-06T06:55:05.070Z,97875.06
2023-05-06T06:57:32.571Z,97875.53
2023-05-06T07:00:00.087Z,97867.16
2023-05-06T07:02:27.621Z,97869.94
2023-05-06T07:04:56.414Z,97874.50
2023-05-06T07:07:23.897Z,97885.75
2023-05-06T07:09:51.347Z,97879.97
2023-05-06T07:12:18.801Z,97879.06
2023-05-06T07:14:46.376Z,97874.44
2023-05-06T07:17:14.295Z,97880.47
2023-05-06T07:19:41.772Z,97872.91
2023-05-06T07:22:10.588Z,97871.25
2023-05-06T07:24:38.118Z,97878.28
2023-05-06T07:27:05.767Z,97877.91
2023-05-06T07:29:34.787Z,97874.06
2023-05-06T07:32:02.291Z,97876.50
2023-05-06T07:34:29.786Z,97881.91
2023-05-06T07:36:57.224Z,97884.41
2023-05-06T07:39:26.259Z,97886.72
2023-05-06T07:41:53.847Z,97881.56
2023-05-06T07:44:21.333Z,97885.06
2023-05-06T07:46:49.114Z,97886.34
2023-05-06T07:49:16.590Z,97879.69
2023-05-06T07:51:45.643Z,97884.38
2023-05-06T07:54:13.336Z,97884.75
2023-05-06T07:56:42.225Z,97886.06
2023-05-06T07:59:09.738Z,97881.41
2023-05-06T08:01:37.397Z,97884.59
2023-05-06T08:04:05.133Z,97888.91
2023-05-06T08:06:33.016Z,97887.91
2023-05-06T08:09:00.662Z,97883.66
2023-05-06T08:11:28.130Z,97882.44
2023-05-06T08:13:56.914Z,97890.53
2023-05-06T08:16:25.481Z,97882.47
2023-05-06T08:18:53.243Z,97884.06
2023-05-06T08:21:20.687Z,97887.66
2023-05-06T08:23:48.215Z,97894.06
2023-05-06T08:26:15.741Z,97893.25
2023-05-06T08:28:43.208Z,97887.53
2023-05-06T08:31:12.103Z,97895.84
2023-05-06T08:33:39.562Z,97895.28
2023-05-06T08:36:07.488Z,97892.41
2023-05-06T08:38:34.937Z,97889.59
2023-05-06T08:41:08.834Z,97898.91
2023-05-06T08:43:41.820Z,97897.25
2023-05-06T08:46:09.676Z,97893.75
2023-05-06T08:48:38.590Z,97897.16
2023-05-06T08:51:06.932Z,97888.69
2023-05-06T08:53:34.831Z,97896.59
2023-05-06T08:56:04.985Z,97892.09
2023-05-06T08:58:34.849Z,97892.25
2023-05-06T09:01:04.120Z,97887.25
2023-05-06T09:03:32.038Z,97893.19
2023-05-06T09:06:00.932Z,97892.94
2023-05-06T09:08:28.391Z,97894.47
2023-05-06T09:10:55.930Z,97899.13
2023-05-06T09:13:23.454Z,97895.50
2023-05-06T09:15:55.139Z,97901.03
2023-05-06T09:18:23.746Z,97894.78
2023-05-06T09:20:51.449Z,97898.69
2023-05-06T09:23:23.586Z,97892.34
2023-05-06T09:25:51.267Z,97893.84
2023-05-06T09:28:18.734Z,97879.59
2023-05-06T09:30:47.470Z,97874.66
2023-05-06T09:33:15.187Z,97884.09
2023-05-06T09:35:44.379Z,97887.28
2023-05-06T09:38:11.977Z,97882.88
2023-05-06T09:40:40.842Z,97883.28
2023-05-06T09:43:09.888Z,97888.91
2023-05-06T09:45:37.675Z,97880.91
2023-05-06T09:48:05.533Z,97886.91
2023-05-06T09:50:33.707Z,97880.16
2023-05-06T09:53:03.548Z,97866.22
2023-05-06T09:55:31.498Z,97876.09
2023-05-06T09:58:01.547Z,97881.75
2023-05-06T10:00:31.367Z,97891.69
2023-05-06T10:03:00.097Z,97873.63
2023-05-06T10:05:29.687Z,97878.69
2023-05-06T10:07:58.169Z,97872.75
2023-05-06T10:10:28.098Z,97871.31
2023-05-06T10:12:56.350Z,97866.75
2023-05-06T10:15:26.945Z,97864.88
2023-05-06T10:17:55.231Z,97866.28
2023-05-06T10:20:25.699Z,97855.44
2023-05-06T10:23:02.078Z,97843.78
2023-05-06T10:25:36.668Z,97854.09
2023-05-06T10:28:08.026Z,97845.53
2023-05-06T10:30:41.263Z,97861.09
2023-05-06T10:33:11.242Z,97865.16
2023-05-06T10:35:45.944Z,97850.97
2023-05-06T10:38:18.964Z,97859.72
2023-05-06T10:40:47.601Z,97855.47
2023-05-06T10:43:25.529Z,97838.84
2023-05-06T10:46:06.962Z,97844.69
2023-05-06T10:48:34.856Z,97843.75
2023-05-06T10:51:28.187Z,97850.66
2023-05-06T10:54:02.247Z,97849.78
2023-05-06T10:56:31.441Z,97853.97
2023-05-06T10:59:04.011Z,97853.91
2023-05-06T11:01:32.889Z,97835.69
2023-05-06T11:04:05.768Z,97854.81
2023-05-06T11:06:34.828Z,97842.75
2023-05-06T11:09:04.008Z,97834.66
2023-05-06T11:11:51.994Z,97829.88
2023-05-06T11:14:28.142Z,97815.88
2023-05-06T11:16:58.245Z,97838.94
2023-05-06T11:19:27.014Z,97838.91
2023-05-06T11:21:57.631Z,97832.38
2023-05-06T11:24:27.480Z,97841.88
2023-05-06T11:26:55.546Z,97844.69
2023-05-06T11:29:23.924Z,97824.56
2023-05-06T11:31:52.868Z,97827.16
2023-05-06T11:34:25.060Z,97827.47
2023-05-06T11:37:00.586Z,97829.78
2023-05-06T11:39:30.611Z,97826.16
2023-05-06T11:42:03.765Z,97825.91
2023-05-06T11:44:33.007Z,97830.03
2023-05-06T11:47:02.023Z,97832.41
2023-05-06T11:49:31.005Z,97835.75
2023-05-06T11:51:58.488Z,97818.78
2023-05-06T11:54:27.680Z,97810.63
2023-05-06T11:56:57.445Z,97813.66
2023-05-06T11:59:30.413Z,97817.94
2023-05-06T12:01:59.738Z,97817.09
2023-05-06T12:04:27.447Z,97820.91
2023-05-06T12:06:57.152Z,97830.84
2023-05-06T12:09:25.449Z,97812.03
2023-05-06T12:11:53.531Z,97827.50
2023-05-06T12:14:21.249Z,97824.59
2023-05-06T12:16:48.900Z,97838.38
2023-05-06T12:19:19.387Z,97824.63
2023-05-06T12:21:47.245Z,97809.66
2023-05-06T12:24:16.565Z,97823.13
2023-05-06T12:26:46.110Z,97802.97
2023-05-06T12:29:17.600Z,97820.38
2023-05-06T12:31:47.075Z,97801.75
2023-05-06T12:34:16.030Z,97825.94
2023-05-06T12:36:45.572Z,97822.09
2023-05-06T12:39:14.425Z,97830.63
2023-05-06T12:41:44.959Z,97837.22
2023-05-06T12:44:32.145Z,97838.50
2023-05-06T12:47:00.547Z,97831.84
2023-05-06T12:49:28.203Z,97830.09
2023-05-06T12:52:09.472Z,97828.84
2023-05-06T12:54:37.377Z,97826.97
2023-05-06T12:57:06.684Z,97815.75
2023-05-06T12:59:35.714Z,97826.03
2023-05-06T13:02:03.346Z,97824.09
2023-05-06T13:04:30.989Z,97829.97
2023-05-06T13:06:58.778Z,97822.78
2023-05-06T13:09:26.800Z,97827.78
2023-05-06T13:11:55.082Z,97827.84
2023-05-06T13:14:23.967Z,97831.72
2023-05-06T13:16:51.584Z,97832.00
2023-05-06T13:19:31.584Z,97826.94
2023-05-06T13:22:00.387Z,97836.03
2023-05-06T13:24:28.130Z,97830.06
2023-05-06T13:26:56.267Z,97836.69
2023-05-06T13:29:25.370Z,97830.31
2023-05-06T13:31:53.721Z,97829.69
2023-05-06T13:34:21.241Z,97826.13
2023-05-06T13:36:49.554Z,97828.09
2023-05-06T13:39:17.453Z,97824.44
2023-05-06T13:41:47.403Z,97832.34
2023-05-06T13:44:14.892Z,97826.16
2023-05-06T13:46:45.622Z,97820.50
2023-05-06T13:49:14.861Z,97825.13
2023-05-06T13:51:42.338Z,97817.66
2023-05-06T13:54:10.078Z,97816.16
2023-05-06T13:56:37.713Z,97802.84
2023-05-06T13:59:05.276Z,97813.31
2023-05-06T14:01:32.941Z,97800.78
2023-05-06T14:04:01.782Z,97790.56
2023-05-06T14:06:29.297Z,97800.28
2023-05-06T14:08:56.834Z,97796.06
2023-05-06T14:11:24.473Z,97779.56
2023-05-06T14:13:51.925Z,97780.22
2023-05-06T14:16:19.469Z,97778.13
2023-05-06T14:18:46.923Z,97771.72
2023-05-06T14:21:15.750Z,97776.66
2023-05-06T14:23:43.231Z,97760.03
2023-05-06T14:26:10.878Z,97765.59
2023-05-06T14:28:38.330Z,97770.41
2023-05-06T14:31:06.178Z,97776.03
2023-05-06T14:33:33.773Z,97766.50
2023-05-06T14:36:03.281Z,97774.00
2023-05-06T14:38:32.246Z,97776.97
2023-05-06T14:40:59.981Z,97771.41
2023-05-06T14:43:27.453Z,97771.34
2023-05-06T14:45:54.979Z,97774.66
2023-05-06T14:48:22.567Z,97776.97
2023-05-06T14:50:49.983Z,97751.91
2023-05-06T14:53:17.447Z,97773.72
2023-05-06T14:55:46.289Z,97769.19
2023-05-06T14:58:13.744Z,97757.63
2023-05-06T15:00:41.317Z,97771.84
2023-05-06T15:03:08.849Z,97764.72
2023-05-06T15:05:37.077Z,97747.47
2023-05-06T15:08:04.710Z,97756.19
2023-05-06T15:10:32.263Z,97763.34
2023-05-06T15:13:01.161Z,97763.94
2023-05-06T15:15:28.851Z,97763.72
2023-05-06T15:17:56.463Z,97748.72
2023-05-06T15:20:24.129Z,97756.34
2023-05-06T15:22:51.626Z,97741.72
2023-05-06T15:25:33.348Z,97746.75
2023-05-06T15:28:03.694Z,97752.53
2023-05-06T15:30:31.259Z,97749.72
2023-05-06T15:32:58.812Z,97750.13
2023-05-06T15:35:27.095Z,97756.19
2023-05-06T15:37:58.339Z,97752.16
2023-05-06T15:40:26.396Z,97754.28
2023-05-06T15:42:53.761Z,97756.56
2023-05-06T15:45:23.542Z,97759.72
2023-05-06T15:47:51.170Z,97752.53
2023-05-06T15:50:32.420Z,97750.81
2023-05-06T15:53:01.176Z,97759.91
2023-05-06T15:55:28.828Z,97757.59
2023-05-06T15:58:00.436Z,97752.94
2023-05-06T16:00:29.642Z,97756.25
2023-05-06T16:02:57.244Z,97747.66
2023-05-06T16:05:24.896Z,97757.38
2023-05-06T16:07:52.341Z,97758.31
2023-05-06T16:10:19.787Z,97749.03
2023-05-06T16:12:47.344Z,97753.09
2023-05-06T16:15:14.873Z,97761.81
2023-05-06T16:17:43.786Z,97755.94
2023-05-06T16:20:12.751Z,97761.34
2023-05-06T16:22:40.828Z,97762.47
2023-05-06T16:25:08.899Z,97765.41
2023-05-06T16:27:36.219Z,97752.66
2023-05-06T16:30:03.884Z,97752.19
2023-05-06T16:32:31.577Z,97767.84
2023-05-06T16:35:00.648Z,97755.72
2023-05-06T16:37:29.029Z,97745.41
2023-05-06T16:39:56.677Z,97749.00
2023-05-06T16:42:24.177Z,97742.13
2023-05-06T16:44:52.141Z,97746.50
2023-05-06T16:47:23.145Z,97739.16
2023-05-06T16:49:50.859Z,97759.44
2023-05-06T16:52:20.156Z,97753.72
2023-05-06T16:54:47.777Z,97742.66
2023-05-06T16:57:15.371Z,97739.31
2023-05-06T16:59:42.822Z,97734.84
2023-05-06T17:02:10.447Z,97745.81
2023-05-06T17:04:38.056Z,97753.03
2023-05-06T17:07:05.618Z,97745.00
2023-05-06T17:09:34.495Z,97748.25
2023-05-06T17:12:02.362Z,97739.72
2023-05-06T17:14:29.796Z,97743.94
2023-05-06T17:16:58.826Z,97743.25
2023-05-06T17:19:26.540Z,97741.22
2023-05-06T17:21:54.015Z,97741.75
2023-05-06T17:24:21.643Z,97739.22
2023-05-06T17:26:50.443Z,97742.44
2023-05-06T17:29:18.002Z,97741.28
2023-05-06T17:31:45.470Z,97738.84
2023-05-06T17:34:12.905Z,97740.81
2023-05-06T17:36:40.395Z,97751.94
2023-05-06T17:39:09.425Z,97748.00
2023-05-06T17:41:37.119Z,97746.81
2023-05-06T17:44:06.751Z,97746.16
2023-05-06T17:46:34.317Z,97740.41
2023-05-06T17:49:01.986Z,97745.94
2023-05-06T17:51:29.421Z,97745.38
2023-05-06T17:53:58.154Z,97740.19
2023-05-06T17:56:26.117Z,97747.38
2023-05-06T17:58:53.577Z,97750.91
2023-05-06T18:01:22.511Z,97753.88
2023-05-06T18:03:50.156Z,97758.06
2023-05-06T18:06:18.530Z,97754.06
2023-05-06T18:08:46.136Z,97749.94
2023-05-06T18:11:13.650Z,97752.66
2023-05-06T18:13:41.149Z,97755.03
2023-05-06T18:16:08.849Z,97758.72
2023-05-06T18:18:37.647Z,97753.09
2023-05-06T18:21:05.152Z,97753.25
2023-05-06T18:23:33.119Z,97758.03
2023-05-06T18:26:00.703Z,97760.06
2023-05-06T18:28:28.155Z,97760.19
2023-05-06T18:30:55.602Z,97761.09
2023-05-06T18:33:23.150Z,97763.13
2023-05-06T18:35:51.984Z,97767.06
2023-05-06T18:38:19.457Z,97771.53
2023-05-06T18:40:48.122Z,97769.13
2023-05-06T18:43:15.594Z,97761.13
2023-05-06T18:45:43.151Z,97766.19
2023-05-06T18:48:11.531Z,97766.09
2023-05-06T18:50:39.324Z,97774.47
2023-05-06T18:53:08.122Z,97778.81
2023-05-06T18:55:35.597Z,97776.03
2023-05-06T18:58:05.504Z,97770.97
2023-05-06T19:00:33.137Z,97770.00
2023-05-06T19:03:00.808Z,97776.94
2023-05-06T19:05:28.319Z,97773.41
2023-05-06T19:07:55.817Z,97779.53
2023-05-06T19:10:24.705Z,97777.66
2023-05-06T19:12:52.227Z,97782.63
2023-05-06T19:15:19.821Z,97783.56
2023-05-06T19:17:47.412Z,97782.16
2023-05-06T19:20:15.255Z,97779.19
2023-05-06T19:22:43.156Z,97775.78
2023-05-06T19:25:11.377Z,97773.44
2023-05-06T19:27:40.396Z,97782.59
2023-05-06T19:30:08.922Z,97779.31
2023-05-06T19:32:36.485Z,97780.38
2023-05-06T19:35:07.916Z,97776.28
2023-05-06T19:37:36.484Z,97779.31
2023-05-06T19:40:05.082Z,97774.97
2023-05-06T19:42:33.626Z,97780.28
2023-05-06T19:45:07.410Z,97784.53
2023-05-06T19:47:35.036Z,97785.09
2023-05-06T19:50:03.236Z,97780.50
2023-05-06T19:52:31.461Z,97783.09
2023-05-06T19:55:00.162Z,97790.03
2023-05-06T19:57:27.698Z,97784.06
2023-05-06T19:59:56.557Z,97783.94
2023-05-06T20:02:26.635Z,97781.09
2023-05-06T20:04:54.233Z,97784.41
2023-05-06T20:07:22.988Z,97782.03
2023-05-06T20:09:55.087Z,97780.03
2023-05-06T20:12:22.893Z,97782.75
2023-05-06T20:14:50.529Z,97780.88
2023-05-06T20:17:18.022Z,97777.47
2023-05-06T20:19:46.926Z,97775.78
2023-05-06T20:22:14.699Z,97774.84
2023-05-06T20:24:43.174Z,97782.88
2023-05-06T20:27:10.760Z,97769.91
2023-05-06T20:29:38.253Z,97777.47
2023-05-06T20:32:06.321Z,97781.09
2023-05-06T20:34:33.874Z,97787.25
2023-05-06T20:37:03.727Z,97776.34
2023-05-06T20:39:31.314Z,97786.50
2023-05-06T20:41:58.863Z,97782.59
2023-05-06T20:44:26.393Z,97783.91
2023-05-06T20:46:53.908Z,97790.50
2023-05-06T20:49:21.368Z,97783.22
2023-05-06T20:51:48.820Z,97784.34
2023-05-06T20:54:17.966Z,97780.00
2023-05-06T20:56:45.418Z,97792.75
2023-05-06T20:59:12.895Z,97788.63
2023-05-06T21:01:40.498Z,97790.16
2023-05-06T21:04:07.940Z,97790.84
2023-05-06T21:06:35.414Z,97783.41
2023-05-06T21:09:02.967Z,97798.88
2023-05-06T21:11:31.796Z,97797.97
2023-05-06T21:13:59.239Z,97802.63
2023-05-06T21:16:26.670Z,97801.41
2023-05-06T21:18:54.221Z,97795.78
2023-05-06T21:21:23.993Z,97804.91
2023-05-06T21:23:51.526Z,97803.13
2023-05-06T21:26:19.014Z,97791.47
2023-05-06T21:28:51.806Z,97797.34
2023-05-06T21:31:20.545Z,97801.41
2023-05-06T21:33:48.088Z,97803.59
2023-05-06T21:36:15.744Z,97801.47
2023-05-06T21:38:43.159Z,97801.56
2023-05-06T21:41:10.641Z,97801.66
2023-05-06T21:43:38.202Z,97798.63
2023-05-06T21:46:07.148Z,97796.38
2023-05-06T21:48:34.647Z,97796.69
2023-05-06T21:51:04.089Z,97803.72
2023-05-06T21:53:31.788Z,97790.91
2023-05-06T21:55:59.222Z,97801.13
2023-05-06T21:58:26.681Z,97792.06
2023-05-06T22:00:54.243Z,97789.09
2023-05-06T22:03:23.168Z,97795.44
2023-05-06T22:05:50.771Z,97796.19
2023-05-06T22:08:18.219Z,97789.56
2023-05-06T22:10:45.699Z,97790.16
2023-05-06T22:13:13.154Z,97795.81
2023-05-06T22:15:41.682Z,97795.34
2023-05-06T22:18:09.333Z,97799.44
2023-05-06T22:20:38.699Z,97800.72
2023-05-06T22:23:06.293Z,97806.84
2023-05-06T22:25:33.853Z,97796.44
2023-05-06T22:28:01.350Z,97803.03
2023-05-06T22:30:28.879Z,97802.25
2023-05-06T22:32:56.429Z,97795.91
2023-05-06T22:35:24.264Z,97798.53
2023-05-06T22:37:53.118Z,97799.16
2023-05-06T22:40:20.792Z,97802.59
2023-05-06T22:42:48.237Z,97793.69
2023-05-06T22:45:15.821Z,97797.59
2023-05-06T22:47:43.326Z,97797.41
2023-05-06T22:50:12.090Z,97800.38
2023-05-06T22:52:39.591Z,97796.44
2023-05-06T22:55:10.148Z,97801.66
2023-05-06T22:57:37.864Z,97793.94
2023-05-06T23:00:08.107Z,97805.56
2023-05-06T23:02:35.888Z,97809.81
2023-05-06T23:05:03.925Z,97801.75
2023-05-06T23:07:31.400Z,97794.94
2023-05-06T23:09:59.654Z,97796.47
2023-05-06T23:12:32.443Z,97794.09
2023-05-06T23:14:59.948Z,97795.13
2023-05-06T23:17:27.721Z,97790.50
2023-05-06T23:19:55.292Z,97793.84
2023-05-06T23:22:22.748Z,97798.28
2023-05-06T23:24:51.264Z,97794.69
2023-05-06T23:27:18.775Z,97802.03
2023-05-06T23:29:47.573Z,97796.25
2023-05-06T23:32:15.077Z,97794.94
2023-05-06T23:34:42.507Z,97795.97
2023-05-06T23:37:11.675Z,97800.78
2023-05-06T23:39:39.136Z,97798.47
2023-05-06T23:42:06.780Z,97802.31
2023-05-06T23:44:34.274Z,97797.75
2023-05-06T23:47:05.707Z,97796.16
2023-05-06T23:49:33.250Z,97797.56
2023-05-06T23:52:00.798Z,97800.00
2023-05-06T23:54:28.373Z,97800.81
2023-05-06T23:56:56.125Z,97804.06
2023-05-06T23:59:23.682Z,97807.38
